Time;durP1;ratioP1;P1;durP2;ratioP2;P2;SDS_P1;SDS_P2;PMS_P1;PMS_P2;Temp;Humidity;BMP_temperature;BMP_pressure;BME280_temperature;BME280_humidity;BME280_pressure;Samples;Min_cycle;Max_cycle;Signal;HPM_P1;HPM_P2
2024/01/17 00:00:42;;;;;;;19.35;8.75;;;1.60;99.90;;;;;;5122637;28;20149;-76
2024/01/17 00:03:08;;;;;;;15.43;8.13;;;1.60;99.90;;;;;;5108072;28;20139;-76
2024/01/17 00:05:34;;;;;;;26.83;8.57;;;1.60;99.90;;;;;;5122027;28;20468;-76
2024/01/17 00:08:00;;;;;;;17.95;7.75;;;1.60;99.90;;;;;;5098472;28;20036;-76
2024/01/17 00:10:26;;;;;;;18.70;8.65;;;1.50;99.90;;;;;;5098368;28;20032;-76
2024/01/17 00:12:51;;;;;;;15.23;7.38;;;1.60;99.90;;;;;;5114240;28;20107;-76
2024/01/17 00:15:20;;;;;;;21.80;8.52;;;1.60;99.90;;;;;;5114608;28;20035;-76
2024/01/17 00:17:48;;;;;;;15.68;7.78;;;1.50;99.90;;;;;;5113739;28;20544;-76
2024/01/17 00:20:14;;;;;;;14.27;7.88;;;1.50;99.90;;;;;;5114243;28;20031;-76
2024/01/17 00:22:40;;;;;;;18.98;7.63;;;1.40;99.90;;;;;;5114815;28;20532;-76
2024/01/17 00:25:09;;;;;;;18.35;7.97;;;1.40;99.90;;;;;;5115099;28;20039;-76
2024/01/17 00:27:38;;;;;;;19.50;8.20;;;1.30;99.90;;;;;;5113506;28;20028;-76
2024/01/17 00:30:04;;;;;;;14.65;7.68;;;1.30;99.90;;;;;;5114721;27;20019;-76
2024/01/17 00:32:34;;;;;;;13.80;7.72;;;1.30;99.90;;;;;;5114906;27;20116;-75
2024/01/17 00:35:00;;;;;;;16.20;8.13;;;1.30;99.90;;;;;;5113414;28;20032;-75
2024/01/17 00:37:25;;;;;;;20.85;8.77;;;1.20;99.90;;;;;;5113034;28;20038;-75
2024/01/17 00:39:51;;;;;;;13.23;7.30;;;1.20;99.90;;;;;;5114765;28;20106;-76
2024/01/17 00:42:27;;;;;;;15.70;7.22;;;1.20;99.90;;;;;;5113122;28;20031;-75
2024/01/17 00:44:53;;;;;;;14.48;7.95;;;1.20;99.90;;;;;;5097745;28;20040;-75
2024/01/17 00:47:20;;;;;;;13.00;7.53;;;1.30;99.90;;;;;;5095500;28;20479;-75
2024/01/17 00:49:46;;;;;;;22.90;7.47;;;1.30;99.90;;;;;;5096192;28;20518;-76
2024/01/17 00:52:11;;;;;;;16.65;8.40;;;1.30;99.90;;;;;;5095744;28;20024;-75
2024/01/17 01:00:34;;;;;;;17.35;7.32;;;1.10;99.90;;;;;;5012341;22;20054;-77
2024/01/17 01:03:00;;;;;;;16.48;7.20;;;1.10;99.90;;;;;;4980117;28;20069;-75
2024/01/17 01:08:48;;;;;;;12.65;7.03;;;1.20;99.90;;;;;;5345409;22;20261;-75
2024/01/17 01:11:14;;;;;;;15.40;6.55;;;1.20;99.90;;;;;;4995892;28;20203;-76
2024/01/17 01:13:39;;;;;;;17.63;7.10;;;1.20;99.90;;;;;;5013441;28;20037;-74
2024/01/17 01:16:05;;;;;;;19.30;7.15;;;1.20;99.90;;;;;;4996102;28;20034;-74
2024/01/17 01:18:31;;;;;;;11.63;6.80;;;1.10;99.90;;;;;;4980121;28;20041;-75
2024/01/17 01:20:57;;;;;;;13.40;7.05;;;1.10;99.90;;;;;;5014099;28;20379;-75
2024/01/17 01:23:25;;;;;;;18.63;7.95;;;1.20;99.90;;;;;;4979769;28;20132;-75
2024/01/17 01:25:51;;;;;;;15.13;6.70;;;1.20;99.90;;;;;;4996593;28;20112;-75
2024/01/17 01:28:16;;;;;;;15.77;7.25;;;1.10;99.90;;;;;;4980462;28;20133;-75
2024/01/17 01:30:42;;;;;;;11.13;6.43;;;1.20;99.90;;;;;;4979706;28;20030;-75
2024/01/17 01:33:08;;;;;;;19.70;7.78;;;1.20;99.90;;;;;;4996298;28;20030;-75
2024/01/17 01:35:33;;;;;;;16.25;6.68;;;1.20;99.90;;;;;;5013432;28;20137;-75
2024/01/17 01:37:59;;;;;;;15.45;6.63;;;1.20;99.90;;;;;;4996297;28;20050;-75
2024/01/17 01:40:25;;;;;;;14.10;6.47;;;1.20;99.90;;;;;;4964239;28;20034;-75
2024/01/17 01:42:50;;;;;;;20.08;7.43;;;1.20;99.90;;;;;;4995813;28;20451;-75
2024/01/17 01:45:17;;;;;;;13.95;6.45;;;1.20;99.90;;;;;;4996148;28;20133;-75
2024/01/17 01:47:42;;;;;;;14.10;7.00;;;1.20;99.90;;;;;;5013704;28;20030;-75
2024/01/17 01:50:10;;;;;;;15.95;7.03;;;1.20;99.90;;;;;;4995734;28;20041;-75
2024/01/17 01:52:39;;;;;;;18.27;6.43;;;1.20;99.90;;;;;;5013368;28;20079;-75
2024/01/17 01:55:06;;;;;;;16.58;7.30;;;1.20;99.90;;;;;;4996418;28;20084;-75
2024/01/17 01:57:36;;;;;;;15.45;6.75;;;1.20;99.90;;;;;;5013518;28;20034;-75
2024/01/17 02:00:04;;;;;;;13.70;6.53;;;1.20;99.90;;;;;;4995824;28;20030;-75
2024/01/17 02:02:32;;;;;;;16.40;6.75;;;1.30;99.90;;;;;;5013234;28;20018;-75
2024/01/17 02:04:59;;;;;;;14.57;6.35;;;1.30;99.90;;;;;;4995964;28;20038;-75
2024/01/17 02:07:27;;;;;;;13.45;5.90;;;1.20;99.90;;;;;;4996530;28;20455;-75
2024/01/17 02:09:54;;;;;;;13.38;5.78;;;1.30;99.90;;;;;;5015317;28;20049;-76
2024/01/17 02:12:20;;;;;;;13.27;7.03;;;1.30;99.90;;;;;;5015922;28;20076;-75
2024/01/17 02:14:45;;;;;;;12.60;5.97;;;1.40;99.90;;;;;;4998107;28;20067;-75
2024/01/17 02:17:11;;;;;;;9.95;6.18;;;1.40;99.90;;;;;;5017576;28;20030;-74
2024/01/17 02:19:40;;;;;;;12.15;6.40;;;1.40;99.90;;;;;;4997042;28;20061;-75
2024/01/17 02:22:05;;;;;;;13.32;6.18;;;1.50;99.90;;;;;;4996929;28;20454;-75
2024/01/17 02:24:31;;;;;;;12.07;6.03;;;1.50;99.90;;;;;;5014397;28;20092;-75
2024/01/17 02:26:59;;;;;;;17.30;6.53;;;1.50;99.90;;;;;;5000817;28;20451;-75
2024/01/17 02:29:26;;;;;;;13.35;5.35;;;1.60;99.90;;;;;;5000371;28;20037;-74
2024/01/17 02:31:52;;;;;;;13.98;5.95;;;1.60;99.90;;;;;;5016888;28;20022;-74
2024/01/17 02:34:18;;;;;;;13.10;5.40;;;1.60;99.90;;;;;;5017044;28;20026;-74
2024/01/17 02:36:43;;;;;;;15.70;6.60;;;1.60;99.90;;;;;;5016559;28;20495;-75
2024/01/17 02:39:10;;;;;;;11.65;5.72;;;1.50;99.90;;;;;;4998683;28;20500;-76
2024/01/17 02:41:36;;;;;;;17.25;6.40;;;1.40;99.90;;;;;;4999177;28;20038;-75
2024/01/17 02:44:01;;;;;;;17.05;6.13;;;1.50;99.90;;;;;;4998739;28;20049;-75
2024/01/17 02:46:28;;;;;;;9.93;5.50;;;1.50;99.90;;;;;;4982928;28;20026;-76
2024/01/17 02:48:54;;;;;;;15.30;5.93;;;1.50;99.90;;;;;;4999036;28;20036;-75
2024/01/17 02:51:20;;;;;;;9.50;5.40;;;1.60;99.90;;;;;;4966658;28;20414;-75
2024/01/17 02:53:46;;;;;;;12.82;6.00;;;1.70;99.90;;;;;;4999057;28;20072;-75
2024/01/17 02:56:14;;;;;;;14.27;6.13;;;1.70;99.90;;;;;;5016330;28;20109;-75
2024/01/17 02:58:40;;;;;;;13.10;5.65;;;1.60;99.90;;;;;;5016982;28;20022;-75
2024/01/17 03:01:06;;;;;;;12.57;6.45;;;1.50;99.90;;;;;;4983666;28;20034;-76
2024/01/17 03:03:32;;;;;;;13.40;6.95;;;1.60;99.90;;;;;;4982418;28;20037;-75
2024/01/17 03:05:57;;;;;;;10.13;5.30;;;1.60;99.90;;;;;;5016358;28;20038;-75
2024/01/17 03:08:23;;;;;;;16.05;6.22;;;1.60;99.90;;;;;;4998257;28;20033;-75
2024/01/17 03:10:49;;;;;;;11.55;5.88;;;1.60;99.70;;;;;;4979158;28;20112;-75
2024/01/17 03:13:14;;;;;;;14.40;5.63;;;1.70;99.70;;;;;;4995023;28;20030;-75
2024/01/17 03:15:40;;;;;;;15.05;6.38;;;1.60;99.60;;;;;;4996631;28;20423;-74
2024/01/17 03:18:13;;;;;;;9.40;4.82;;;1.60;99.70;;;;;;4979315;28;20146;-75
2024/01/17 03:20:40;;;;;;;10.65;5.70;;;1.70;99.70;;;;;;4995626;28;20444;-75
2024/01/17 03:23:06;;;;;;;14.50;6.00;;;1.70;99.50;;;;;;4996107;28;20129;-75
2024/01/17 03:25:31;;;;;;;11.48;5.57;;;1.70;99.40;;;;;;4995261;28;20109;-75
2024/01/17 03:27:57;;;;;;;11.30;5.80;;;1.60;99.40;;;;;;4996727;28;20027;-75
2024/01/17 03:30:23;;;;;;;14.55;6.32;;;1.60;99.40;;;;;;4978583;28;20038;-75
2024/01/17 03:32:48;;;;;;;14.90;6.38;;;1.60;99.30;;;;;;4996283;28;20027;-75
2024/01/17 03:35:14;;;;;;;11.05;5.78;;;1.50;99.40;;;;;;4995496;28;20038;-75
2024/01/17 03:37:40;;;;;;;9.02;5.80;;;1.50;99.40;;;;;;4995388;28;20027;-75
2024/01/17 03:40:06;;;;;;;14.23;6.15;;;1.50;99.30;;;;;;4978809;28;20395;-75
2024/01/17 03:42:31;;;;;;;13.82;5.88;;;1.50;99.40;;;;;;4995177;28;20034;-75
2024/01/17 03:44:57;;;;;;;12.45;5.72;;;1.60;99.40;;;;;;4994561;28;20133;-75
2024/01/17 03:47:22;;;;;;;13.25;5.95;;;1.60;99.30;;;;;;4963230;28;20061;-75
2024/01/17 03:49:48;;;;;;;15.38;5.45;;;1.70;99.40;;;;;;4978703;28;20105;-75
2024/01/17 03:52:14;;;;;;;10.45;6.07;;;1.70;99.30;;;;;;4995915;28;20057;-75
2024/01/17 03:54:40;;;;;;;9.63;5.40;;;1.70;99.60;;;;;;4996134;28;20038;-75
2024/01/17 03:57:05;;;;;;;13.20;6.00;;;1.70;99.20;;;;;;4994680;28;20172;-75
2024/01/17 03:59:31;;;;;;;11.95;6.05;;;1.80;99.30;;;;;;4978568;28;20031;-75
2024/01/17 04:01:57;;;;;;;12.65;5.97;;;1.80;99.20;;;;;;4994598;28;20042;-76
2024/01/17 04:04:22;;;;;;;10.15;5.05;;;1.80;99.10;;;;;;4994452;28;20041;-75
2024/01/17 04:06:48;;;;;;;10.52;5.53;;;1.80;99.10;;;;;;4995958;28;20026;-75
2024/01/17 04:09:14;;;;;;;11.85;5.65;;;1.90;99.10;;;;;;5001344;28;20069;-75
2024/01/17 04:11:39;;;;;;;11.27;5.88;;;1.80;99.00;;;;;;4981160;28;20034;-75
2024/01/17 04:14:06;;;;;;;10.45;5.38;;;1.80;99.00;;;;;;5014688;28;20116;-74
2024/01/17 04:16:34;;;;;;;8.52;5.25;;;1.80;99.10;;;;;;4997189;28;20033;-75
2024/01/17 04:19:00;;;;;;;12.75;5.95;;;1.80;99.10;;;;;;5015263;28;20018;-75
2024/01/17 04:21:26;;;;;;;12.98;5.13;;;1.90;99.00;;;;;;4997551;28;20109;-76
2024/01/17 04:23:51;;;;;;;12.10;5.70;;;1.90;99.00;;;;;;4981356;28;20112;-76
2024/01/17 04:26:25;;;;;;;12.73;5.75;;;1.90;98.90;;;;;;4997461;28;20065;-76
2024/01/17 04:28:54;;;;;;;14.23;5.97;;;2.00;98.90;;;;;;5015080;28;20026;-76
2024/01/17 04:31:30;;;;;;;12.23;6.28;;;2.00;98.90;;;;;;4981083;28;20125;-76
2024/01/17 04:33:57;;;;;;;10.20;5.60;;;2.00;98.80;;;;;;4997042;28;20108;-76
2024/01/17 04:36:27;;;;;;;11.23;5.78;;;2.00;98.70;;;;;;5014701;28;20022;-76
2024/01/17 04:38:53;;;;;;;10.52;5.88;;;2.00;98.60;;;;;;4997658;28;20026;-76
2024/01/17 04:41:19;;;;;;;10.88;6.68;;;2.00;98.60;;;;;;5014243;28;20125;-76
2024/01/17 04:43:45;;;;;;;11.13;5.57;;;2.00;98.80;;;;;;4981098;28;20084;-76
2024/01/17 04:46:14;;;;;;;10.90;5.03;;;1.90;98.50;;;;;;4997573;28;20026;-76
2024/01/17 04:48:41;;;;;;;13.57;5.50;;;2.00;98.50;;;;;;4996112;28;20034;-76
2024/01/17 04:51:09;;;;;;;11.35;5.78;;;1.90;98.50;;;;;;4996900;28;20439;-76
2024/01/17 04:53:37;;;;;;;10.60;5.30;;;2.00;98.50;;;;;;4996621;28;20042;-75
2024/01/17 04:56:05;;;;;;;10.13;5.40;;;2.00;98.40;;;;;;4997061;28;20081;-76
2024/01/17 04:58:34;;;;;;;15.13;5.82;;;2.00;98.40;;;;;;5015530;28;20036;-76
2024/01/17 05:01:00;;;;;;;12.20;5.40;;;2.00;98.40;;;;;;5014736;28;20029;-76
2024/01/17 05:03:27;;;;;;;9.43;5.13;;;2.00;98.40;;;;;;4997847;28;20057;-76
2024/01/17 05:05:53;;;;;;;9.30;4.72;;;2.00;98.40;;;;;;4998911;28;20042;-76
2024/01/17 05:08:19;;;;;;;8.18;5.40;;;2.10;98.40;;;;;;5017816;28;20108;-76
2024/01/17 05:10:45;;;;;;;15.40;5.90;;;2.10;98.30;;;;;;5017033;28;20050;-75
2024/01/17 05:13:14;;;;;;;11.88;5.63;;;2.10;98.20;;;;;;4981593;28;20125;-75
2024/01/17 05:15:40;;;;;;;10.63;6.03;;;2.10;98.10;;;;;;4996803;28;20040;-75
2024/01/17 05:18:06;;;;;;;12.20;6.43;;;2.00;97.90;;;;;;4996941;28;20109;-76
2024/01/17 05:20:33;;;;;;;14.20;6.63;;;2.00;97.90;;;;;;4996227;28;20026;-76
2024/01/17 05:22:59;;;;;;;13.60;6.30;;;2.00;97.90;;;;;;5013961;28;20030;-76
2024/01/17 05:25:26;;;;;;;10.93;5.43;;;1.90;97.80;;;;;;4996143;28;20038;-76
2024/01/17 05:27:54;;;;;;;14.30;6.50;;;1.80;97.80;;;;;;4996422;28;20041;-76
2024/01/17 05:30:20;;;;;;;11.10;6.45;;;1.70;97.80;;;;;;4996469;28;20080;-76
2024/01/17 05:32:46;;;;;;;14.50;6.32;;;1.60;97.80;;;;;;5013610;28;20068;-76
2024/01/17 05:35:14;;;;;;;14.38;5.70;;;1.60;98.00;;;;;;4995876;28;20053;-75
2024/01/17 05:37:43;;;;;;;14.68;6.07;;;1.60;98.10;;;;;;4996526;28;20034;-76
2024/01/17 05:40:12;;;;;;;15.25;6.47;;;1.60;98.10;;;;;;4980457;28;20637;-76
2024/01/17 05:42:39;;;;;;;9.65;6.22;;;1.60;98.10;;;;;;4995785;28;20021;-76
2024/01/17 05:45:06;;;;;;;8.98;5.68;;;1.60;98.10;;;;;;5013406;28;20080;-76
2024/01/17 05:47:32;;;;;;;13.70;6.28;;;1.60;98.20;;;;;;5013309;28;20059;-76
2024/01/17 05:49:58;;;;;;;11.93;6.03;;;1.60;98.20;;;;;;4995377;28;20038;-76
2024/01/17 05:52:24;;;;;;;9.70;5.65;;;1.70;98.30;;;;;;4995676;28;20038;-76
2024/01/17 05:54:50;;;;;;;10.60;6.05;;;1.70;98.30;;;;;;4963634;28;20041;-75
2024/01/17 05:57:15;;;;;;;15.30;6.40;;;1.70;98.20;;;;;;5013781;28;20462;-76
2024/01/17 05:59:42;;;;;;;14.50;6.22;;;1.70;98.20;;;;;;4995646;28;20037;-76
2024/01/17 06:02:07;;;;;;;16.15;7.35;;;1.70;98.20;;;;;;4996265;28;20414;-76
2024/01/17 06:04:33;;;;;;;13.32;7.00;;;1.70;98.20;;;;;;5012850;28;20074;-75
2024/01/17 06:06:59;;;;;;;14.15;7.40;;;1.60;98.20;;;;;;4995341;28;20066;-76
2024/01/17 06:09:25;;;;;;;11.00;7.03;;;1.70;98.20;;;;;;4994962;28;20088;-76
2024/01/17 06:11:51;;;;;;;13.45;6.32;;;1.70;98.30;;;;;;5013051;28;20057;-75
2024/01/17 06:14:16;;;;;;;11.98;6.72;;;1.70;98.20;;;;;;4995832;28;20041;-75
2024/01/17 06:16:42;;;;;;;11.48;6.38;;;1.70;98.20;;;;;;4995382;28;20070;-76
2024/01/17 06:19:08;;;;;;;11.73;5.70;;;1.70;98.20;;;;;;4979190;28;20070;-76
2024/01/17 06:21:33;;;;;;;12.77;6.72;;;1.80;98.20;;;;;;4995079;28;20112;-75
2024/01/17 06:23:59;;;;;;;11.23;6.28;;;1.80;98.20;;;;;;4995232;28;20466;-75
2024/01/17 06:26:24;;;;;;;13.50;5.85;;;1.80;98.20;;;;;;4995101;28;20084;-75
2024/01/17 06:28:50;;;;;;;13.20;6.63;;;1.90;98.20;;;;;;4978752;28;20029;-75
2024/01/17 06:31:24;;;;;;;13.20;6.40;;;1.90;98.20;;;;;;4979258;28;20038;-75
2024/01/17 06:33:50;;;;;;;11.80;6.45;;;1.90;98.10;;;;;;4994772;28;20030;-75
2024/01/17 06:36:16;;;;;;;13.10;6.25;;;1.90;98.10;;;;;;4994942;28;20041;-75
2024/01/17 06:38:42;;;;;;;12.80;6.80;;;1.90;98.10;;;;;;4994921;28;20390;-75
2024/01/17 06:41:07;;;;;;;14.82;5.95;;;1.90;97.90;;;;;;4979102;28;20028;-75
2024/01/17 06:43:33;;;;;;;12.70;6.88;;;1.80;98.00;;;;;;5012615;28;20185;-76
2024/01/17 06:45:59;;;;;;;9.85;6.10;;;1.90;98.00;;;;;;4995033;28;20100;-76
2024/01/17 06:48:24;;;;;;;15.00;6.63;;;1.80;98.00;;;;;;5012338;28;20033;-75
2024/01/17 06:50:50;;;;;;;12.57;6.88;;;1.80;98.00;;;;;;4995433;28;20037;-75
2024/01/17 06:53:17;;;;;;;12.00;6.72;;;1.80;98.00;;;;;;5012275;28;20034;-75
2024/01/17 06:55:43;;;;;;;10.90;6.20;;;1.80;97.90;;;;;;4979061;28;20117;-76
2024/01/17 06:58:10;;;;;;;13.30;6.53;;;1.80;97.90;;;;;;4995281;28;20133;-75
2024/01/17 07:00:35;;;;;;;13.57;6.97;;;1.80;97.80;;;;;;4995671;28;20030;-76
2024/01/17 07:03:01;;;;;;;12.18;6.78;;;1.80;97.80;;;;;;5012449;28;20111;-75
2024/01/17 07:05:28;;;;;;;12.75;6.68;;;1.70;97.80;;;;;;4994402;28;20108;-76
2024/01/17 07:07:54;;;;;;;12.05;6.20;;;1.70;97.80;;;;;;4994701;28;20026;-75
2024/01/17 07:10:20;;;;;;;14.23;7.40;;;1.60;97.90;;;;;;4958379;28;20062;-78
2024/01/17 07:12:46;;;;;;;14.88;7.25;;;1.60;97.90;;;;;;4995601;28;20022;-78
2024/01/17 07:15:12;;;;;;;17.48;6.70;;;1.70;97.90;;;;;;4994674;28;20038;-76
2024/01/17 07:17:38;;;;;;;11.50;6.40;;;1.70;97.80;;;;;;4995630;28;20034;-75
2024/01/17 07:20:04;;;;;;;11.57;7.45;;;1.60;97.80;;;;;;4994185;28;20169;-77
2024/01/17 07:22:30;;;;;;;14.00;7.70;;;1.60;97.80;;;;;;4994389;28;20041;-77
2024/01/17 07:24:56;;;;;;;14.52;6.10;;;1.50;97.70;;;;;;4994635;28;20039;-76
2024/01/17 07:27:22;;;;;;;13.45;6.70;;;1.50;98.40;;;;;;4994883;28;20117;-77
2024/01/17 07:29:47;;;;;;;11.23;5.97;;;1.60;99.00;;;;;;4978687;28;20491;-79
2024/01/17 07:32:13;;;;;;;11.68;6.35;;;1.60;99.10;;;;;;4995265;28;20031;-79
2024/01/17 07:34:39;;;;;;;8.63;4.75;;;1.70;99.00;;;;;;4994762;28;20038;-78
2024/01/17 07:37:04;;;;;;;11.57;5.78;;;1.70;99.30;;;;;;4995800;28;20038;-76
2024/01/17 07:39:30;;;;;;;8.73;5.28;;;1.90;99.90;;;;;;4996631;28;20150;-78
2024/01/17 07:41:56;;;;;;;9.32;5.50;;;2.10;99.90;;;;;;4994861;28;20101;-77
2024/01/17 07:44:26;;;;;;;8.95;5.20;;;2.30;99.90;;;;;;4994371;28;20463;-77
2024/01/17 07:46:53;;;;;;;11.85;6.45;;;2.50;99.90;;;;;;4981166;28;20030;-77
2024/01/17 07:49:19;;;;;;;14.80;7.03;;;2.50;99.90;;;;;;4998920;28;20023;-78
2024/01/17 07:51:45;;;;;;;13.75;5.75;;;2.60;99.90;;;;;;4980746;28;20041;-78
2024/01/17 07:54:11;;;;;;;14.20;5.90;;;2.60;99.50;;;;;;4998891;28;20035;-79
2024/01/17 07:56:37;;;;;;;11.13;5.95;;;2.60;99.20;;;;;;4998519;28;20490;-79
2024/01/17 07:59:07;;;;;;;11.43;5.88;;;2.70;99.00;;;;;;4995377;28;20376;-77
2024/01/17 08:01:32;;;;;;;15.55;5.65;;;2.70;98.60;;;;;;4995150;28;20031;-77
2024/01/17 08:03:58;;;;;;;11.45;5.97;;;2.70;98.60;;;;;;4994669;28;20100;-77
2024/01/17 08:06:24;;;;;;;11.25;5.40;;;2.70;97.90;;;;;;4994560;28;20421;-75
2024/01/17 08:08:50;;;;;;;10.93;5.75;;;2.60;97.40;;;;;;4979292;28;20034;-76
2024/01/17 08:11:16;;;;;;;9.52;5.57;;;2.50;96.60;;;;;;4997786;28;20030;-76
2024/01/17 08:13:42;;;;;;;11.60;5.50;;;2.60;96.90;;;;;;4981248;28;20386;-76
2024/01/17 08:16:07;;;;;;;10.77;5.70;;;2.60;97.10;;;;;;4997118;28;20040;-76
2024/01/17 08:18:33;;;;;;;11.55;5.25;;;2.60;97.00;;;;;;4997535;28;20438;-77
2024/01/17 08:20:59;;;;;;;9.40;5.82;;;2.70;97.10;;;;;;4997224;28;20030;-76
2024/01/17 08:23:25;;;;;;;11.15;5.90;;;2.60;96.80;;;;;;4980489;28;20037;-76
2024/01/17 08:25:50;;;;;;;10.63;5.95;;;2.60;96.50;;;;;;4996692;28;20038;-79
2024/01/17 08:28:17;;;;;;;9.00;5.43;;;2.60;96.00;;;;;;5014071;28;20438;-79
2024/01/17 08:30:43;;;;;;;11.30;5.45;;;2.60;96.50;;;;;;5014037;28;20026;-78
2024/01/17 08:33:09;;;;;;;10.57;5.88;;;2.70;96.70;;;;;;4980723;28;20038;-79
2024/01/17 08:35:35;;;;;;;12.32;5.63;;;2.70;96.40;;;;;;4980710;28;20087;-79
2024/01/17 08:38:01;;;;;;;11.35;5.68;;;2.80;96.40;;;;;;5014271;28;20111;-79
2024/01/17 08:40:27;;;;;;;12.13;6.78;;;2.80;96.30;;;;;;4980128;28;20026;-78
2024/01/17 08:42:55;;;;;;;10.27;5.85;;;2.80;96.10;;;;;;4963805;28;20037;-79
2024/01/17 08:45:22;;;;;;;14.63;7.28;;;2.90;96.20;;;;;;4996109;28;20431;-78
2024/01/17 08:47:48;;;;;;;12.90;6.10;;;2.90;96.20;;;;;;4996054;28;20454;-73
2024/01/17 08:50:26;;;;;;;13.68;6.60;;;2.90;96.10;;;;;;4997438;28;20038;-78
2024/01/17 08:53:02;;;;;;;12.95;5.57;;;3.30;99.40;;;;;;4981130;28;20466;-80
2024/01/17 08:55:28;;;;;;;8.60;5.93;;;4.10;99.90;;;;;;5014204;28;20026;-79
2024/01/17 08:58:00;;;;;;;12.38;6.32;;;4.20;99.90;;;;;;4995929;28;20030;-77
2024/01/17 09:00:26;;;;;;;12.50;6.18;;;4.10;99.80;;;;;;4997463;28;20411;-79
2024/01/17 09:02:52;;;;;;;9.25;5.40;;;4.00;98.90;;;;;;5013849;28;20094;-79
2024/01/17 09:05:20;;;;;;;13.52;6.47;;;3.90;97.70;;;;;;4996329;28;20116;-79
2024/01/17 09:07:48;;;;;;;10.40;6.43;;;3.70;97.00;;;;;;4996370;28;20355;-76
2024/01/17 09:10:16;;;;;;;12.77;6.78;;;3.50;96.10;;;;;;5013507;28;20490;-76
2024/01/17 09:12:42;;;;;;;12.93;6.10;;;3.40;95.70;;;;;;5013352;28;20018;-76
2024/01/17 09:15:08;;;;;;;11.43;6.70;;;3.30;95.40;;;;;;4979808;28;20034;-76
2024/01/17 09:17:34;;;;;;;12.75;5.68;;;3.20;95.20;;;;;;4995862;28;20046;-76
2024/01/17 09:20:00;;;;;;;9.43;5.57;;;3.20;95.50;;;;;;4996045;28;20033;-77
2024/01/17 09:22:26;;;;;;;11.95;6.45;;;3.20;95.60;;;;;;4996029;28;20041;-77
2024/01/17 09:24:52;;;;;;;12.70;5.78;;;3.10;95.30;;;;;;5013299;28;20034;-76
2024/01/17 09:27:18;;;;;;;10.25;5.95;;;3.00;95.50;;;;;;4995879;28;20112;-76
2024/01/17 09:29:45;;;;;;;10.50;6.45;;;3.10;95.90;;;;;;4996192;28;20034;-78
2024/01/17 09:32:12;;;;;;;12.88;6.75;;;3.10;95.90;;;;;;5013878;28;20105;-76
2024/01/17 09:34:39;;;;;;;13.00;6.47;;;3.10;95.80;;;;;;5012746;28;20021;-77
2024/01/17 09:37:05;;;;;;;11.48;5.80;;;3.10;96.00;;;;;;4996008;28;20391;-77
2024/01/17 09:39:31;;;;;;;12.82;6.55;;;3.20;95.70;;;;;;4995759;28;20471;-77
2024/01/17 09:41:59;;;;;;;16.00;6.95;;;3.20;95.90;;;;;;5013437;28;20052;-77
2024/01/17 09:44:26;;;;;;;12.43;6.65;;;3.30;95.60;;;;;;5013547;28;20133;-77
2024/01/17 09:46:52;;;;;;;9.70;6.32;;;3.30;95.60;;;;;;4996188;28;20049;-78
2024/01/17 09:49:18;;;;;;;13.30;6.68;;;3.40;95.80;;;;;;4995612;28;20034;-78
2024/01/17 09:51:44;;;;;;;13.43;6.68;;;3.40;95.50;;;;;;4996209;28;20083;-78
2024/01/17 09:54:12;;;;;;;11.55;6.20;;;3.40;95.40;;;;;;4963550;28;20143;-78
2024/01/17 09:56:41;;;;;;;11.88;6.13;;;3.50;95.60;;;;;;4995527;28;20033;-77
2024/01/17 09:59:21;;;;;;;14.13;7.15;;;3.50;95.60;;;;;;5013756;28;20056;-78
2024/01/17 10:01:47;;;;;;;11.27;6.25;;;3.60;95.80;;;;;;4997160;28;20085;-78
2024/01/17 10:04:15;;;;;;;10.55;6.28;;;3.70;95.90;;;;;;4995571;28;20061;-77
2024/01/17 10:06:43;;;;;;;12.55;6.53;;;3.80;95.50;;;;;;4995242;28;20398;-77
2024/01/17 10:09:09;;;;;;;13.75;7.57;;;3.80;95.20;;;;;;4995266;28;20072;-78
2024/01/17 10:11:36;;;;;;;14.65;6.68;;;3.90;95.30;;;;;;5013271;28;20129;-78
2024/01/17 10:14:02;;;;;;;13.70;7.65;;;3.90;95.10;;;;;;4979452;28;20037;-77
2024/01/17 10:16:28;;;;;;;16.20;7.45;;;3.90;94.90;;;;;;4995936;28;20034;-78
2024/01/17 10:18:54;;;;;;;13.32;6.18;;;3.90;94.80;;;;;;4995607;28;20034;-78
2024/01/17 10:21:21;;;;;;;13.65;7.05;;;3.90;94.90;;;;;;4995595;28;20018;-78
2024/01/17 10:23:47;;;;;;;15.05;8.15;;;4.00;95.00;;;;;;5013426;28;20467;-78
2024/01/17 10:26:13;;;;;;;13.35;7.03;;;4.00;94.90;;;;;;4980553;28;20117;-77
2024/01/17 10:28:39;;;;;;;14.75;6.90;;;4.00;94.70;;;;;;5014302;28;20030;-78
2024/01/17 10:31:05;;;;;;;15.30;8.48;;;4.00;94.50;;;;;;5015096;28;20030;-78
2024/01/17 10:33:32;;;;;;;12.60;6.82;;;4.00;94.50;;;;;;4982110;28;20026;-79
2024/01/17 10:35:59;;;;;;;10.50;6.13;;;3.90;94.20;;;;;;5014575;28;20033;-79
2024/01/17 10:38:32;;;;;;;12.25;7.38;;;4.00;94.40;;;;;;4996555;28;20034;-79
2024/01/17 10:41:08;;;;;;;11.80;6.63;;;4.10;94.70;;;;;;5013712;28;20030;-77
2024/01/17 10:43:53;;;;;;;13.35;7.00;;;4.00;94.30;;;;;;4996412;28;20037;-79
2024/01/17 10:46:18;;;;;;;13.20;6.90;;;4.10;94.40;;;;;;4983287;28;20084;-78
2024/01/17 10:48:44;;;;;;;14.15;7.30;;;4.10;94.50;;;;;;4999378;28;20042;-80
2024/01/17 10:51:23;;;;;;;13.50;7.88;;;4.10;94.00;;;;;;5016965;28;20087;-78
2024/01/17 10:53:56;;;;;;;14.82;7.75;;;4.00;93.40;;;;;;4999784;28;20025;-79
2024/01/17 10:56:22;;;;;;;15.60;7.40;;;4.00;93.20;;;;;;5016609;28;20072;-78
2024/01/17 10:58:50;;;;;;;11.45;6.68;;;3.90;93.00;;;;;;4999097;28;20077;-78
2024/01/17 11:01:20;;;;;;;11.13;6.03;;;3.80;93.30;;;;;;5016213;28;20022;-77
2024/01/17 11:03:47;;;;;;;17.10;8.20;;;3.90;93.70;;;;;;5016377;28;20080;-78
2024/01/17 11:06:15;;;;;;;11.68;6.70;;;4.00;93.70;;;;;;5016626;28;20038;-79
2024/01/17 11:08:42;;;;;;;14.05;7.45;;;4.00;93.60;;;;;;5016436;28;20463;-77
2024/01/17 11:11:09;;;;;;;13.98;7.22;;;4.00;93.70;;;;;;4998504;28;20069;-79
2024/01/17 11:13:37;;;;;;;14.73;7.75;;;4.10;93.70;;;;;;4999413;28;20030;-80
2024/01/17 11:16:05;;;;;;;13.00;7.20;;;4.10;93.80;;;;;;4998751;28;20443;-79
2024/01/17 11:18:34;;;;;;;13.15;6.70;;;4.20;93.70;;;;;;5017038;28;20030;-76
2024/01/17 11:21:01;;;;;;;12.60;6.97;;;4.20;93.80;;;;;;5016445;28;20119;-77
2024/01/17 11:23:43;;;;;;;11.53;7.40;;;4.30;93.90;;;;;;4998611;28;20467;-78
2024/01/17 11:26:41;;;;;;;18.80;7.68;;;4.40;93.80;;;;;;5016337;28;20510;-78
2024/01/17 11:29:55;;;;;;;13.55;7.78;;;4.40;93.10;;;;;;5015698;28;20445;-78
2024/01/17 11:32:40;;;;;;;11.80;6.70;;;4.30;92.80;;;;;;5010256;28;20041;-78
2024/01/17 11:35:05;;;;;;;17.05;8.40;;;4.30;93.10;;;;;;5015368;28;20506;-78
2024/01/17 11:37:34;;;;;;;14.80;7.50;;;4.30;92.80;;;;;;4998541;28;20171;-77
2024/01/17 11:40:01;;;;;;;12.93;7.25;;;4.30;92.80;;;;;;4981843;28;20061;-79
2024/01/17 11:42:27;;;;;;;11.13;7.13;;;4.30;93.00;;;;;;4997637;28;20026;-76
2024/01/17 11:44:55;;;;;;;14.88;7.43;;;4.30;93.20;;;;;;4981734;28;20386;-77
2024/01/17 11:47:21;;;;;;;14.32;7.55;;;4.40;93.40;;;;;;4998090;28;20426;-79
2024/01/17 11:49:47;;;;;;;17.33;8.02;;;4.50;93.40;;;;;;5014902;28;20022;-79
2024/01/17 11:52:27;;;;;;;14.50;7.45;;;4.50;93.20;;;;;;4998472;28;20030;-80
2024/01/17 11:54:54;;;;;;;14.50;7.60;;;4.60;93.50;;;;;;5016050;28;20109;-80
2024/01/17 11:57:20;;;;;;;14.10;7.43;;;4.50;92.70;;;;;;4997339;28;20022;-78
2024/01/17 12:00:05;;;;;;;11.32;6.75;;;4.50;92.50;;;;;;4997837;28;20596;-78
2024/01/17 12:02:38;;;;;;;14.15;7.35;;;4.50;92.90;;;;;;5015083;28;20038;-78
2024/01/17 12:05:07;;;;;;;15.18;7.57;;;4.50;92.80;;;;;;5015064;28;20081;-76
2024/01/17 12:07:40;;;;;;;14.90;7.57;;;4.50;92.70;;;;;;5015052;28;20030;-77
2024/01/17 12:10:11;;;;;;;14.95;7.78;;;4.50;92.50;;;;;;4997088;28;20054;-78
2024/01/17 12:12:38;;;;;;;14.25;8.02;;;4.50;92.60;;;;;;4998371;28;20078;-77
2024/01/17 12:15:09;;;;;;;11.93;7.50;;;4.50;92.40;;;;;;4997140;28;20085;-77
2024/01/17 12:17:37;;;;;;;20.63;8.43;;;4.40;92.60;;;;;;4982460;28;20046;-76
2024/01/17 12:20:06;;;;;;;14.02;8.07;;;4.50;92.70;;;;;;4981342;28;20100;-77
2024/01/17 12:22:32;;;;;;;14.52;7.38;;;4.40;92.10;;;;;;5015180;28;20045;-77
2024/01/17 12:24:59;;;;;;;16.77;8.88;;;4.40;92.30;;;;;;4997497;28;20050;-78
2024/01/17 12:27:26;;;;;;;13.00;7.85;;;4.40;92.20;;;;;;4997704;28;20029;-78
2024/01/17 12:29:54;;;;;;;11.93;7.50;;;4.30;92.20;;;;;;4981509;28;20026;-76
2024/01/17 12:32:23;;;;;;;15.18;7.63;;;4.30;92.50;;;;;;4997859;28;20049;-76
2024/01/17 12:34:50;;;;;;;13.80;7.47;;;4.30;92.50;;;;;;4980980;28;20104;-77
2024/01/17 12:37:16;;;;;;;14.02;8.30;;;4.40;92.40;;;;;;4981089;28;20105;-76
2024/01/17 12:39:41;;;;;;;15.40;7.53;;;4.40;92.50;;;;;;4964701;28;20029;-77
2024/01/17 12:42:07;;;;;;;14.05;7.40;;;4.40;92.40;;;;;;4997204;28;20041;-78
2024/01/17 12:44:33;;;;;;;15.98;7.88;;;4.50;92.40;;;;;;4997295;28;20049;-77
2024/01/17 12:47:00;;;;;;;12.90;7.22;;;4.50;92.00;;;;;;4996829;28;20118;-77
2024/01/17 12:49:29;;;;;;;10.60;7.18;;;4.50;92.00;;;;;;4997047;28;20034;-77
2024/01/17 12:51:55;;;;;;;12.13;7.38;;;4.50;92.00;;;;;;4996859;28;20041;-77
2024/01/17 12:54:22;;;;;;;14.52;7.60;;;4.60;92.10;;;;;;4997173;28;20030;-77
2024/01/17 12:56:49;;;;;;;15.75;7.40;;;4.60;92.20;;;;;;4981732;28;20113;-77